createdAt,value
2022-11-12T00:01:20.332Z,8.40
2022-11-12T00:06:17.583Z,8.40
2022-11-12T00:11:16.088Z,8.40
2022-11-12T00:16:13.390Z,8.50
2022-11-12T00:21:10.659Z,8.40
2022-11-12T00:26:07.853Z,8.40
2022-11-12T00:31:12.328Z,8.40
2022-11-12T00:36:10.359Z,8.40
2022-11-12T00:41:08.292Z,8.30
2022-11-12T00:46:05.643Z,8.20
2022-11-12T00:51:04.858Z,8.30
2022-11-12T00:56:03.990Z,8.50
2022-11-12T01:01:15.577Z,8.50
2022-11-12T01:06:16.326Z,8.50
2022-11-12T01:11:18.768Z,8.50
2022-11-12T01:16:22.616Z,8.50
2022-11-12T01:21:19.878Z,8.30
2022-11-12T01:26:20.705Z,8.30
2022-11-12T01:31:29.333Z,8.20
2022-11-12T01:36:28.682Z,8.10
2022-11-12T01:41:29.296Z,8.10
2022-11-12T01:46:29.880Z,8.10
2022-11-12T01:51:34.031Z,8.20
2022-11-12T01:56:32.002Z,8.10
2022-11-12T02:01:29.461Z,8.10
2022-11-12T02:06:37.872Z,8.10
2022-11-12T02:11:45.076Z,8.00
2022-11-12T02:16:48.552Z,7.90
2022-11-12T02:21:46.560Z,8.00
2022-11-12T02:26:51.525Z,8.00
2022-11-12T02:32:49.432Z,7.80
2022-11-12T02:37:49.974Z,7.90
2022-11-12T02:42:47.574Z,7.80
2022-11-12T02:47:47.221Z,7.80
2022-11-12T02:52:46.328Z,7.80
2022-11-12T02:57:46.480Z,7.80
2022-11-12T03:02:59.310Z,7.80
2022-11-12T03:08:02.517Z,7.70
2022-11-12T03:13:02.056Z,7.60
2022-11-12T03:18:00.866Z,7.70
2022-11-12T03:23:05.554Z,7.80
2022-11-12T03:28:15.244Z,7.60
2022-11-12T03:33:22.314Z,7.50
2022-11-12T03:38:21.593Z,7.30
2022-11-12T03:43:22.981Z,7.10
2022-11-12T03:48:22.400Z,7.00
2022-11-12T03:53:21.105Z,7.20
2022-11-12T03:58:19.770Z,7.30
2022-11-12T04:03:18.105Z,7.30
2022-11-12T04:08:38.574Z,7.30
2022-11-12T04:13:39.941Z,7.20
2022-11-12T04:18:58.926Z,7.10
2022-11-12T04:23:59.171Z,7.00
2022-11-12T04:29:20.326Z,7.00
2022-11-12T04:34:30.215Z,7.00
2022-11-12T04:39:32.071Z,7.00
2022-11-12T04:45:13.280Z,7.20
2022-11-12T04:50:15.855Z,7.10
2022-11-12T04:55:13.770Z,7.00
2022-11-12T05:00:13.379Z,7.00
2022-11-12T05:05:11.429Z,7.00
2022-11-12T05:10:18.600Z,7.00
2022-11-12T05:15:17.064Z,7.10
2022-11-12T05:20:15.940Z,7.20
2022-11-12T05:25:16.749Z,7.20
2022-11-12T05:30:15.104Z,7.20
2022-11-12T05:35:15.131Z,7.10
2022-11-12T05:40:13.622Z,7.00
2022-11-12T05:45:12.739Z,7.10
2022-11-12T05:50:11.414Z,7.20
2022-11-12T05:55:10.716Z,7.20
2022-11-12T06:00:10.372Z,7.00
2022-11-12T06:05:09.653Z,6.80
2022-11-12T06:10:10.153Z,6.60
2022-11-12T06:15:10.110Z,6.60
2022-11-12T06:20:08.354Z,6.70
2022-11-12T06:25:07.080Z,6.70
2022-11-12T06:30:06.668Z,6.60
2022-11-12T06:35:05.727Z,6.70
2022-11-12T06:40:06.046Z,6.60
2022-11-12T06:45:05.040Z,6.60
2022-11-12T06:50:04.090Z,6.60
2022-11-12T06:55:11.221Z,6.40
2022-11-12T07:00:12.356Z,6.40
2022-11-12T07:05:09.960Z,6.40
2022-11-12T07:10:10.172Z,6.60
2022-11-12T07:15:13.366Z,6.90
2022-11-12T07:20:17.767Z,7.10
2022-11-12T07:25:24.908Z,7.30
2022-11-12T07:30:28.070Z,7.40
2022-11-12T07:35:29.726Z,7.40
2022-11-12T07:40:30.377Z,7.60
2022-11-12T07:45:29.952Z,7.90
2022-11-12T07:50:28.747Z,8.00
2022-11-12T07:55:28.386Z,8.00
2022-11-12T08:00:27.222Z,7.90
2022-11-12T08:05:26.876Z,7.90
2022-11-12T08:10:24.647Z,8.10
2022-11-12T08:15:22.002Z,8.10
2022-11-12T08:20:19.463Z,8.20
2022-11-12T08:25:16.919Z,8.30
2022-11-12T08:30:15.313Z,8.20
2022-11-12T08:35:13.103Z,8.40
2022-11-12T08:40:11.695Z,8.30
2022-11-12T08:45:09.441Z,8.40
2022-11-12T08:50:07.735Z,8.50
2022-11-12T08:55:06.198Z,8.80
2022-11-12T09:00:04.007Z,8.80
2022-11-12T09:05:01.338Z,9.20
2022-11-12T09:09:59.116Z,9.40
2022-11-12T09:15:36.162Z,9.70
2022-11-12T09:20:25.378Z,10.20
2022-11-12T09:25:22.552Z,10.30
2022-11-12T09:30:20.255Z,10.50
2022-11-12T09:35:17.497Z,10.90
2022-11-12T09:40:20.088Z,11.30
2022-11-12T09:45:28.772Z,11.60
2022-11-12T09:50:36.582Z,11.30
2022-11-12T09:55:43.932Z,11.50
2022-11-12T10:00:54.813Z,12.30
2022-11-12T10:06:19.319Z,12.00
2022-11-12T10:12:04.197Z,11.60
2022-11-12T10:17:24.556Z,11.50
2022-11-12T10:22:40.042Z,11.30
2022-11-12T10:27:41.867Z,11.30
2022-11-12T10:32:45.135Z,11.00
2022-11-12T10:38:14.672Z,10.90
2022-11-12T10:43:18.022Z,10.60
2022-11-12T10:48:34.509Z,10.80
2022-11-12T10:53:39.032Z,11.10
2022-11-12T10:58:36.296Z,11.70
2022-11-12T11:03:57.878Z,11.40
2022-11-12T11:09:08.783Z,11.40
2022-11-12T11:14:27.212Z,11.40
2022-11-12T11:19:37.643Z,11.60
2022-11-12T11:24:37.010Z,11.60
2022-11-12T11:30:12.965Z,11.50
2022-11-12T11:35:28.931Z,11.10
2022-11-12T11:40:41.631Z,10.90
2022-11-12T11:46:06.305Z,10.60
2022-11-12T11:51:34.711Z,10.60
2022-11-12T11:56:43.894Z,10.60
2022-11-12T12:02:28.446Z,11.10
2022-11-12T12:07:40.653Z,11.40
2022-11-12T12:12:56.081Z,11.70
2022-11-12T12:18:20.744Z,11.80
2022-11-12T12:23:33.817Z,11.70
2022-11-12T12:28:48.575Z,11.70
2022-11-12T12:33:57.573Z,11.50
2022-11-12T12:39:18.248Z,11.30
2022-11-12T12:44:15.468Z,11.30
2022-11-12T12:49:33.524Z,11.30
2022-11-12T12:54:39.943Z,11.20
2022-11-12T12:59:37.740Z,11.10
2022-11-12T13:04:57.545Z,11.00
2022-11-12T13:10:33.363Z,10.90
2022-11-12T13:15:44.707Z,10.90
2022-11-12T13:20:42.952Z,11.00
2022-11-12T13:25:40.512Z,11.10
2022-11-12T13:30:43.534Z,11.00
2022-11-12T13:35:41.015Z,10.90
2022-11-12T13:40:56.163Z,10.90
2022-11-12T13:46:12.172Z,10.90
2022-11-12T13:51:17.994Z,10.80
2022-11-12T13:56:28.991Z,10.70
2022-11-12T14:01:26.697Z,10.60
2022-11-12T14:06:37.412Z,10.60
2022-11-12T14:11:55.301Z,10.70
2022-11-12T14:16:55.822Z,10.60
2022-11-12T14:22:16.717Z,10.50
2022-11-12T14:27:43.389Z,10.40
2022-11-12T14:32:43.572Z,10.30
2022-11-12T14:37:44.061Z,10.30
2022-11-12T14:42:41.431Z,10.10
2022-11-12T14:47:38.740Z,10.00
2022-11-12T14:52:41.559Z,9.90
2022-11-12T14:57:40.690Z,9.70
2022-11-12T15:02:53.829Z,9.50
2022-11-12T15:08:03.382Z,9.30
2022-11-12T15:13:08.630Z,9.20
2022-11-12T15:18:20.145Z,9.10
2022-11-12T15:23:20.590Z,8.90
2022-11-12T15:28:25.721Z,8.80
2022-11-12T15:33:23.261Z,8.60
2022-11-12T15:38:32.849Z,8.50
2022-11-12T15:43:35.314Z,8.30
2022-11-12T15:48:32.611Z,8.10
2022-11-12T15:53:30.789Z,8.00
2022-11-12T15:58:34.034Z,8.00
2022-11-12T16:03:31.778Z,7.90
2022-11-12T16:08:29.286Z,7.80
2022-11-12T16:13:31.347Z,7.60
2022-11-12T16:18:29.168Z,7.50
2022-11-12T16:23:26.929Z,7.40
2022-11-12T16:28:24.514Z,7.30
2022-11-12T16:33:21.805Z,7.30
2022-11-12T16:38:19.544Z,7.40
2022-11-12T16:43:19.623Z,7.40
2022-11-12T16:48:22.538Z,7.30
2022-11-12T16:53:19.762Z,7.10
2022-11-12T16:58:17.009Z,7.00
2022-11-12T17:03:14.980Z,7.00
2022-11-12T17:08:14.678Z,7.00
2022-11-12T17:13:13.649Z,6.90
2022-11-12T17:18:11.034Z,6.80
2022-11-12T17:23:08.550Z,6.70
2022-11-12T17:28:05.805Z,6.40
2022-11-12T17:33:03.053Z,6.20
2022-11-12T17:38:00.552Z,6.20
2022-11-12T17:42:57.915Z,6.20
2022-11-12T17:47:55.264Z,6.20
2022-11-12T17:52:52.574Z,6.10
2022-11-12T17:57:49.889Z,6.00
2022-11-12T18:02:47.405Z,5.90
2022-11-12T18:07:44.619Z,5.90
2022-11-12T18:12:41.850Z,5.80
2022-11-12T18:17:39.429Z,5.80
2022-11-12T18:22:42.154Z,5.80
2022-11-12T18:27:42.247Z,5.70
2022-11-12T18:32:41.587Z,5.70
2022-11-12T18:37:39.167Z,5.60
2022-11-12T18:42:36.502Z,5.40
2022-11-12T18:47:33.853Z,5.40
2022-11-12T18:52:31.156Z,5.50
2022-11-12T18:57:28.550Z,5.50
2022-11-12T19:02:26.322Z,5.40
2022-11-12T19:07:23.670Z,5.30
2022-11-12T19:12:21.125Z,5.30
2022-11-12T19:17:18.367Z,5.30
2022-11-12T19:22:16.030Z,5.20
2022-11-12T19:27:13.330Z,5.10
2022-11-12T19:32:13.255Z,5.30
2022-11-12T19:42:27.920Z,5.30
2022-11-12T19:47:25.170Z,5.30
2022-11-12T19:52:22.635Z,5.10
2022-11-12T19:57:19.825Z,4.90
2022-11-12T20:02:17.365Z,5.00
2022-11-12T20:07:14.687Z,5.00
2022-11-12T20:12:11.975Z,4.80
2022-11-12T20:17:09.346Z,4.80
2022-11-12T20:22:06.555Z,5.00
2022-11-12T20:27:06.151Z,5.10
2022-11-12T20:32:03.446Z,5.10
2022-11-12T20:37:00.911Z,5.10
2022-11-12T20:41:58.353Z,5.10
2022-11-12T20:46:55.755Z,5.20
2022-11-12T20:51:53.000Z,5.20
2022-11-12T20:56:50.946Z,5.30
2022-11-12T21:01:48.270Z,5.30
2022-11-12T21:06:45.590Z,5.10
2022-11-12T21:11:43.118Z,5.20
2022-11-12T21:16:40.883Z,5.30
2022-11-12T21:21:38.182Z,5.40
2022-11-12T21:26:35.734Z,5.40
2022-11-12T21:31:33.231Z,5.50
2022-11-12T21:36:32.306Z,5.60
2022-11-12T21:41:32.361Z,5.60
2022-11-12T21:46:31.666Z,5.70
2022-11-12T21:51:31.181Z,5.70
2022-11-12T21:56:29.149Z,5.90
2022-11-12T22:01:28.927Z,5.90
2022-11-12T22:06:30.091Z,6.00
2022-11-12T22:11:27.836Z,6.00
2022-11-12T22:16:27.579Z,5.90
2022-11-12T22:21:34.128Z,6.00
2022-11-12T22:26:35.345Z,5.90
2022-11-12T22:31:33.309Z,5.70
2022-11-12T22:36:31.716Z,5.60
2022-11-12T22:41:31.059Z,5.60
2022-11-12T22:46:36.781Z,5.50
2022-11-12T22:51:35.689Z,5.40
2022-11-12T22:56:35.314Z,5.40
2022-11-12T23:01:36.272Z,5.40
2022-11-12T23:06:33.764Z,5.30
2022-11-12T23:11:31.894Z,5.20
2022-11-12T23:16:36.082Z,5.20
2022-11-12T23:21:33.745Z,5.40
2022-11-12T23:26:31.478Z,5.30
2022-11-12T23:31:30.801Z,5.40
2022-11-12T23:36:29.572Z,5.40
2022-11-12T23:41:27.658Z,5.30
2022-11-12T23:46:25.932Z,5.30
2022-11-12T23:51:23.489Z,5.30
2022-11-12T23:56:20.838Z,5.40
